createdAt,value
2023-01-20T00:01:19.157Z,98327.50
2023-01-20T00:03:48.009Z,98326.44
2023-01-20T00:06:15.398Z,98326.44
2023-01-20T00:08:43.682Z,98314.09
2023-01-20T00:11:12.367Z,98305.91
2023-01-20T00:13:39.702Z,98309.03
2023-01-20T00:16:08.068Z,98300.19
2023-01-20T00:18:36.008Z,98296.50
2023-01-20T00:21:06.685Z,98298.19
2023-01-20T00:23:33.896Z,98315.81
2023-01-20T00:26:08.241Z,98316.56
2023-01-20T00:28:35.428Z,98312.16
2023-01-20T00:31:12.057Z,98317.13
2023-01-20T00:33:39.283Z,98315.31
2023-01-20T00:36:07.099Z,98327.56
2023-01-20T00:38:34.267Z,98331.09
2023-01-20T00:41:01.487Z,98347.22
2023-01-20T00:43:29.001Z,98361.97
2023-01-20T00:45:56.145Z,98357.09
2023-01-20T00:48:23.329Z,98370.87
2023-01-20T00:50:50.766Z,98382.19
2023-01-20T00:53:17.978Z,98371.72
2023-01-20T00:55:45.176Z,98352.38
2023-01-20T00:58:12.592Z,98350.00
2023-01-20T01:00:39.992Z,98352.88
2023-01-20T01:03:07.189Z,98340.13
2023-01-20T01:05:34.614Z,98336.12
2023-01-20T01:08:01.758Z,98331.81
2023-01-20T01:10:28.891Z,98320.66
2023-01-20T01:12:56.392Z,98326.56
2023-01-20T01:15:23.605Z,98317.09
2023-01-20T01:17:51.669Z,98320.38
2023-01-20T01:20:19.351Z,98309.56
2023-01-20T01:22:46.547Z,98310.75
2023-01-20T01:25:13.949Z,98301.41
2023-01-20T01:27:41.477Z,98289.13
2023-01-20T01:30:08.915Z,98296.72
2023-01-20T01:32:36.033Z,98290.22
2023-01-20T01:35:03.519Z,98293.66
2023-01-20T01:37:30.697Z,98298.06
2023-01-20T01:39:57.840Z,98285.53
2023-01-20T01:42:25.761Z,98284.28
2023-01-20T01:45:11.500Z,98291.50
2023-01-20T01:48:05.227Z,98282.75
2023-01-20T01:50:37.324Z,98282.19
2023-01-20T01:53:04.783Z,98276.16
2023-01-20T01:55:33.546Z,98266.25
2023-01-20T01:58:00.739Z,98266.28
2023-01-20T02:00:28.199Z,98270.78
2023-01-20T02:02:55.653Z,98265.44
2023-01-20T02:05:23.076Z,98256.22
2023-01-20T02:07:50.229Z,98267.62
2023-01-20T02:10:17.606Z,98263.94
2023-01-20T02:12:47.294Z,98269.00
2023-01-20T02:15:14.559Z,98260.66
2023-01-20T02:17:48.074Z,98257.31
2023-01-20T02:20:34.709Z,98269.53
2023-01-20T02:23:08.133Z,98259.19
2023-01-20T02:25:41.791Z,98271.09
2023-01-20T02:28:27.558Z,98271.94
2023-01-20T02:30:55.009Z,98281.66
2023-01-20T02:33:57.490Z,98267.59
2023-01-20T02:36:27.934Z,98270.56
2023-01-20T02:38:56.591Z,98276.38
2023-01-20T02:41:25.724Z,98259.31
2023-01-20T02:43:59.164Z,98257.78
2023-01-20T02:46:39.955Z,98258.03
2023-01-20T02:49:10.462Z,98265.84
2023-01-20T02:51:42.119Z,98266.56
2023-01-20T02:54:10.023Z,98261.47
2023-01-20T02:56:37.197Z,98256.69
2023-01-20T02:59:05.666Z,98259.00
2023-01-20T03:01:43.040Z,98273.25
2023-01-20T03:04:10.772Z,98266.22
2023-01-20T03:06:38.837Z,98273.06
2023-01-20T03:09:07.052Z,98277.47
2023-01-20T03:11:36.189Z,98275.66
2023-01-20T03:14:08.172Z,98284.75
2023-01-20T03:16:35.382Z,98285.16
2023-01-20T03:19:02.772Z,98288.94
2023-01-20T03:21:30.193Z,98295.56
2023-01-20T03:23:58.548Z,98292.16
2023-01-20T03:26:25.737Z,98284.75
2023-01-20T03:28:54.706Z,98295.03
2023-01-20T03:31:23.072Z,98288.88
2023-01-20T03:33:50.989Z,98300.03
2023-01-20T03:36:18.655Z,98297.72
2023-01-20T03:38:45.821Z,98303.41
2023-01-20T03:41:13.029Z,98295.78
2023-01-20T03:43:44.857Z,98291.78
2023-01-20T03:46:14.749Z,98296.06
2023-01-20T03:48:42.850Z,98299.16
2023-01-20T03:51:18.682Z,98293.22
2023-01-20T03:53:53.102Z,98291.69
2023-01-20T03:56:23.381Z,98303.09
2023-01-20T03:58:51.631Z,98301.16
2023-01-20T04:01:23.321Z,98296.44
2023-01-20T04:03:51.367Z,98294.78
2023-01-20T04:06:19.759Z,98295.03
2023-01-20T04:08:56.603Z,98289.69
2023-01-20T04:11:24.362Z,98292.44
2023-01-20T04:13:51.554Z,98292.91
2023-01-20T04:16:18.878Z,98280.13
2023-01-20T04:18:47.578Z,98292.59
2023-01-20T04:21:18.934Z,98279.28
2023-01-20T04:23:48.297Z,98283.25
2023-01-20T04:26:15.426Z,98297.41
2023-01-20T04:28:42.702Z,98300.28
2023-01-20T04:31:28.779Z,98306.31
2023-01-20T04:33:57.101Z,98299.50
2023-01-20T04:36:24.564Z,98299.63
2023-01-20T04:38:51.721Z,98300.81
2023-01-20T04:41:18.981Z,98296.50
2023-01-20T04:43:46.730Z,98305.69
2023-01-20T04:46:14.596Z,98304.22
2023-01-20T04:48:41.754Z,98304.22
2023-01-20T04:51:09.686Z,98305.16
2023-01-20T04:53:36.908Z,98284.66
2023-01-20T04:56:04.132Z,98275.62
2023-01-20T04:58:31.592Z,98267.03
2023-01-20T05:01:01.205Z,98258.56
2023-01-20T05:03:28.478Z,98242.06
2023-01-20T05:05:55.890Z,98244.12
2023-01-20T05:08:23.043Z,98232.59
2023-01-20T05:10:50.184Z,98241.22
2023-01-20T05:13:17.607Z,98242.38
2023-01-20T05:15:44.891Z,98235.81
2023-01-20T05:18:12.062Z,98244.53
2023-01-20T05:20:39.637Z,98255.16
2023-01-20T05:23:07.130Z,98254.91
2023-01-20T05:25:34.325Z,98249.16
2023-01-20T05:28:01.737Z,98257.19
2023-01-20T05:30:28.908Z,98255.66
2023-01-20T05:32:56.091Z,98260.44
2023-01-20T05:35:32.771Z,98249.97
2023-01-20T05:38:01.490Z,98249.97
2023-01-20T05:40:28.954Z,98260.56
2023-01-20T05:43:02.488Z,98257.38
2023-01-20T05:45:30.115Z,98261.00
2023-01-20T05:47:58.062Z,98270.06
2023-01-20T05:50:26.160Z,98280.63
2023-01-20T05:52:53.760Z,98261.13
2023-01-20T05:55:21.077Z,98263.94
2023-01-20T05:57:48.216Z,98271.75
2023-01-20T06:00:18.721Z,98272.94
2023-01-20T06:02:48.600Z,98270.53
2023-01-20T06:05:16.073Z,98271.53
2023-01-20T06:07:43.583Z,98266.41
2023-01-20T06:10:11.286Z,98267.47
2023-01-20T06:12:38.480Z,98264.31
2023-01-20T06:15:06.865Z,98257.84
2023-01-20T06:17:34.288Z,98258.13
2023-01-20T06:20:01.441Z,98256.75
2023-01-20T06:22:28.609Z,98261.81
2023-01-20T06:24:56.024Z,98269.94
2023-01-20T06:27:23.136Z,98264.44
2023-01-20T06:29:50.963Z,98272.19
2023-01-20T06:32:18.634Z,98269.16
2023-01-20T06:34:46.176Z,98275.16
2023-01-20T06:37:13.478Z,98280.13
2023-01-20T06:39:40.911Z,98266.84
2023-01-20T06:42:08.105Z,98270.47
2023-01-20T06:44:35.307Z,98275.50
2023-01-20T06:47:02.897Z,98272.31
2023-01-20T06:49:30.262Z,98275.53
2023-01-20T06:51:57.395Z,98290.81
2023-01-20T06:54:24.878Z,98280.63
2023-01-20T06:57:10.530Z,98282.47
2023-01-20T06:59:37.972Z,98281.91
2023-01-20T07:02:05.244Z,98285.75
2023-01-20T07:04:32.523Z,98285.31
2023-01-20T07:06:59.959Z,98285.37
2023-01-20T07:09:27.145Z,98286.31
2023-01-20T07:11:54.659Z,98290.12
2023-01-20T07:14:22.248Z,98292.06
2023-01-20T07:16:49.428Z,98296.28
2023-01-20T07:19:16.626Z,98304.84
2023-01-20T07:21:44.041Z,98307.00
2023-01-20T07:24:11.258Z,98302.09
2023-01-20T07:26:38.409Z,98304.78
2023-01-20T07:29:05.917Z,98305.53
2023-01-20T07:31:34.343Z,98305.09
2023-01-20T07:34:01.574Z,98304.41
2023-01-20T07:36:29.077Z,98306.53
2023-01-20T07:38:56.326Z,98307.03
2023-01-20T07:41:23.682Z,98302.06
2023-01-20T07:43:51.931Z,98302.13
2023-01-20T07:46:20.558Z,98303.44
2023-01-20T07:48:47.855Z,98310.19
2023-01-20T07:51:15.677Z,98301.19
2023-01-20T07:53:49.327Z,98311.84
2023-01-20T07:56:18.126Z,98303.78
2023-01-20T07:58:45.502Z,98309.47
2023-01-20T08:01:13.981Z,98310.41
2023-01-20T08:03:43.180Z,98318.88
2023-01-20T08:06:11.582Z,98320.66
2023-01-20T08:08:38.871Z,98330.09
2023-01-20T08:11:06.834Z,98333.47
2023-01-20T08:13:34.088Z,98337.63
2023-01-20T08:16:01.865Z,98337.50
2023-01-20T08:18:29.615Z,98342.03
2023-01-20T08:20:56.774Z,98345.34
2023-01-20T08:23:24.040Z,98341.72
2023-01-20T08:25:58.573Z,98336.28
2023-01-20T08:28:26.321Z,98341.88
2023-01-20T08:30:53.965Z,98334.06
2023-01-20T08:33:21.156Z,98340.34
2023-01-20T08:35:48.401Z,98333.81
2023-01-20T08:38:15.820Z,98334.81
2023-01-20T08:40:43.261Z,98338.22
2023-01-20T08:43:10.395Z,98345.66
2023-01-20T08:45:37.888Z,98350.56
2023-01-20T08:48:05.136Z,98349.75
2023-01-20T08:50:32.333Z,98353.00
2023-01-20T08:52:59.765Z,98350.66
2023-01-20T08:55:26.919Z,98353.09
2023-01-20T08:57:54.066Z,98354.59
2023-01-20T09:00:21.639Z,98360.94
2023-01-20T09:02:48.819Z,98351.38
2023-01-20T09:05:16.250Z,98359.47
2023-01-20T09:07:45.167Z,98357.91
2023-01-20T09:10:12.626Z,98359.03
2023-01-20T09:12:39.793Z,98360.13
2023-01-20T09:15:07.661Z,98359.41
2023-01-20T09:17:35.791Z,98358.59
2023-01-20T09:20:02.996Z,98357.88
2023-01-20T09:22:30.535Z,98348.78
2023-01-20T09:24:57.688Z,98346.41
2023-01-20T09:27:25.476Z,98333.66
2023-01-20T09:29:52.897Z,98336.00
2023-01-20T09:32:20.046Z,98326.47
2023-01-20T09:34:47.192Z,98334.47
2023-01-20T09:37:33.344Z,98323.69
2023-01-20T09:40:19.317Z,98309.47
2023-01-20T09:43:23.840Z,98305.03
2023-01-20T09:45:58.486Z,98322.16
2023-01-20T09:49:05.807Z,98317.22
2023-01-20T09:52:13.471Z,98321.41
2023-01-20T09:54:45.554Z,98315.78
2023-01-20T09:57:12.730Z,98308.34
2023-01-20T09:59:44.810Z,98308.03
2023-01-20T10:02:15.189Z,98300.06
2023-01-20T10:04:43.828Z,98292.53
2023-01-20T10:07:29.828Z,98286.16
2023-01-20T10:10:00.223Z,98274.91
2023-01-20T10:12:31.837Z,98266.03
2023-01-20T10:15:18.079Z,98261.50
2023-01-20T10:17:51.017Z,98252.78
2023-01-20T10:20:18.509Z,98243.31
2023-01-20T10:23:04.439Z,98235.44
2023-01-20T10:25:42.044Z,98241.63
2023-01-20T10:28:14.320Z,98241.63
2023-01-20T10:30:41.912Z,98238.63
2023-01-20T10:33:10.439Z,98240.63
2023-01-20T10:35:38.933Z,98238.00
2023-01-20T10:38:07.201Z,98236.09
2023-01-20T10:40:37.070Z,98240.56
2023-01-20T10:43:11.449Z,98240.66
2023-01-20T10:45:38.853Z,98243.81
2023-01-20T10:48:05.962Z,98256.66
2023-01-20T10:50:51.904Z,98255.84
2023-01-20T10:53:33.676Z,98259.97
2023-01-20T10:56:03.382Z,98258.50
2023-01-20T10:58:32.260Z,98259.94
2023-01-20T11:01:00.267Z,98259.50
2023-01-20T11:03:28.258Z,98267.62
2023-01-20T11:05:55.684Z,98264.72
2023-01-20T11:08:23.905Z,98267.53
2023-01-20T11:10:55.323Z,98264.63
2023-01-20T11:13:22.755Z,98262.34
2023-01-20T11:15:52.039Z,98263.44
2023-01-20T11:18:27.774Z,98256.16
2023-01-20T11:21:02.932Z,98249.44
2023-01-20T11:23:47.792Z,98245.12
2023-01-20T11:26:20.495Z,98235.94
2023-01-20T11:28:47.942Z,98233.81
2023-01-20T11:31:15.566Z,98206.78
2023-01-20T11:33:55.853Z,98217.00
2023-01-20T11:36:27.612Z,98213.47
2023-01-20T11:38:55.786Z,98203.16
2023-01-20T11:41:23.418Z,98197.75
2023-01-20T11:43:51.271Z,98194.87
2023-01-20T11:46:21.574Z,98199.44
2023-01-20T11:48:49.273Z,98194.06
2023-01-20T11:51:20.911Z,98202.72
2023-01-20T11:53:48.527Z,98192.97
2023-01-20T11:56:19.941Z,98186.19
2023-01-20T11:58:57.615Z,98195.13
2023-01-20T12:01:29.167Z,98190.88
2023-01-20T12:04:02.841Z,98180.91
2023-01-20T12:06:31.279Z,98188.34
2023-01-20T12:09:00.850Z,98183.91
2023-01-20T12:11:35.120Z,98194.47
2023-01-20T12:14:21.053Z,98194.56
2023-01-20T12:16:58.617Z,98201.03
2023-01-20T12:19:35.253Z,98198.25
2023-01-20T12:22:04.306Z,98204.09
2023-01-20T12:25:03.910Z,98209.34
2023-01-20T12:27:31.120Z,98201.91
2023-01-20T12:30:06.118Z,98201.38
2023-01-20T12:32:33.399Z,98197.19
2023-01-20T12:35:00.825Z,98197.16
2023-01-20T12:37:27.957Z,98211.44
2023-01-20T12:39:55.096Z,98214.19
2023-01-20T12:42:25.537Z,98203.09
2023-01-20T12:44:58.484Z,98208.47
2023-01-20T12:47:30.664Z,98209.31
2023-01-20T12:50:01.084Z,98209.63
2023-01-20T12:52:42.006Z,98212.03
2023-01-20T12:55:13.392Z,98204.88
2023-01-20T12:57:53.616Z,98207.81
2023-01-20T13:00:28.862Z,98216.84
2023-01-20T13:03:08.043Z,98223.13
2023-01-20T13:05:42.521Z,98233.66
2023-01-20T13:08:23.253Z,98237.47
2023-01-20T13:10:56.757Z,98227.47
2023-01-20T13:13:24.150Z,98244.41
2023-01-20T13:15:51.282Z,98240.63
2023-01-20T13:18:18.449Z,98243.34
2023-01-20T13:20:45.897Z,98230.78
2023-01-20T13:23:14.374Z,98235.22
2023-01-20T13:25:41.689Z,98229.50
2023-01-20T13:28:18.794Z,98240.75
2023-01-20T13:30:51.590Z,98244.53
2023-01-20T13:33:29.132Z,98243.28
2023-01-20T13:35:56.343Z,98242.22
2023-01-20T13:38:33.052Z,98245.41
2023-01-20T13:41:03.433Z,98253.50
2023-01-20T13:43:36.452Z,98246.66
2023-01-20T13:46:03.643Z,98236.53
2023-01-20T13:48:31.975Z,98245.75
2023-01-20T13:51:18.081Z,98243.03
2023-01-20T13:53:45.504Z,98250.88
2023-01-20T13:56:30.118Z,98244.84
2023-01-20T13:58:58.323Z,98245.72
2023-01-20T14:01:26.076Z,98249.16
2023-01-20T14:04:06.901Z,98246.44
2023-01-20T14:06:35.764Z,98248.63
2023-01-20T14:09:03.457Z,98258.31
2023-01-20T14:11:31.395Z,98268.25
2023-01-20T14:13:59.774Z,98263.47
2023-01-20T14:16:35.064Z,98275.97
2023-01-20T14:19:05.511Z,98267.91
2023-01-20T14:21:39.564Z,98268.91
2023-01-20T14:24:22.507Z,98270.19
2023-01-20T14:26:49.920Z,98269.22
2023-01-20T14:29:17.719Z,98269.19
2023-01-20T14:31:46.075Z,98270.47
2023-01-20T14:34:13.742Z,98258.44
2023-01-20T14:36:40.909Z,98268.75
2023-01-20T14:39:12.809Z,98260.66
2023-01-20T14:41:50.616Z,98277.63
2023-01-20T14:44:28.242Z,98267.88
2023-01-20T14:46:56.751Z,98270.59
2023-01-20T14:49:26.025Z,98279.03
2023-01-20T14:51:53.208Z,98271.34
2023-01-20T14:54:30.661Z,98280.84
2023-01-20T14:56:58.109Z,98266.34
2023-01-20T14:59:25.808Z,98275.12
2023-01-20T15:01:53.577Z,98285.75
2023-01-20T15:04:21.137Z,98275.28
2023-01-20T15:06:52.853Z,98276.25
2023-01-20T15:09:33.218Z,98275.28
2023-01-20T15:12:19.303Z,98280.91
2023-01-20T15:14:56.527Z,98277.94
2023-01-20T15:17:23.989Z,98299.38
2023-01-20T15:19:51.115Z,98296.78
2023-01-20T15:22:20.058Z,98295.88
2023-01-20T15:24:47.853Z,98305.78
2023-01-20T15:27:32.229Z,98304.88
2023-01-20T15:30:13.036Z,98301.16
2023-01-20T15:32:40.988Z,98299.59
2023-01-20T15:35:11.783Z,98295.75
2023-01-20T15:37:38.924Z,98310.59
2023-01-20T15:40:06.555Z,98311.66
2023-01-20T15:42:34.013Z,98306.03
2023-01-20T15:45:01.167Z,98302.69
2023-01-20T15:47:30.986Z,98303.22
2023-01-20T15:49:58.596Z,98310.09
2023-01-20T15:52:25.740Z,98313.12
2023-01-20T15:54:52.886Z,98318.22
2023-01-20T15:57:20.391Z,98328.06
2023-01-20T15:59:49.742Z,98314.91
2023-01-20T16:02:18.016Z,98314.22
2023-01-20T16:04:45.535Z,98314.81
2023-01-20T16:07:13.442Z,98319.56
2023-01-20T16:09:40.693Z,98326.13
2023-01-20T16:12:14.746Z,98336.88
2023-01-20T16:14:42.070Z,98337.25
2023-01-20T16:17:19.440Z,98338.34
2023-01-20T16:19:46.925Z,98329.88
2023-01-20T16:22:14.601Z,98341.34
2023-01-20T16:24:41.979Z,98336.59
2023-01-20T16:27:19.579Z,98343.88
2023-01-20T16:29:47.531Z,98337.75
2023-01-20T16:32:17.119Z,98335.69
2023-01-20T16:34:45.839Z,98326.44
2023-01-20T16:37:14.188Z,98328.59
2023-01-20T16:39:41.463Z,98333.78
2023-01-20T16:42:13.332Z,98323.87
2023-01-20T16:44:41.133Z,98323.63
2023-01-20T16:47:08.438Z,98329.75
2023-01-20T16:49:35.769Z,98336.88
2023-01-20T16:52:03.279Z,98336.22
2023-01-20T16:54:30.451Z,98337.06
2023-01-20T16:56:57.988Z,98342.47
2023-01-20T16:59:26.010Z,98339.91
2023-01-20T17:01:53.726Z,98340.59
2023-01-20T17:04:21.142Z,98338.00
2023-01-20T17:06:49.001Z,98334.84
2023-01-20T17:09:16.260Z,98332.97
2023-01-20T17:11:43.668Z,98333.31
2023-01-20T17:14:11.874Z,98332.22
2023-01-20T17:16:39.668Z,98322.44
2023-01-20T17:19:07.882Z,98316.34
2023-01-20T17:21:37.382Z,98321.22
2023-01-20T17:24:05.260Z,98333.38
2023-01-20T17:26:32.783Z,98329.09
2023-01-20T17:29:06.862Z,98327.72
2023-01-20T17:31:36.801Z,98331.66
2023-01-20T17:34:05.194Z,98337.66
2023-01-20T17:36:35.831Z,98341.88
2023-01-20T17:39:04.215Z,98320.03
2023-01-20T17:41:33.577Z,98339.72
2023-01-20T17:44:01.178Z,98326.88
2023-01-20T17:46:29.679Z,98335.09
2023-01-20T17:48:58.409Z,98328.75
2023-01-20T17:51:27.640Z,98333.88
2023-01-20T17:53:55.176Z,98340.00
2023-01-20T17:56:23.889Z,98334.81
2023-01-20T17:58:51.308Z,98337.03
2023-01-20T18:01:20.620Z,98330.25
2023-01-20T18:03:49.920Z,98330.53
2023-01-20T18:06:17.940Z,98320.12
2023-01-20T18:08:49.657Z,98341.34
2023-01-20T18:11:21.992Z,98332.78
2023-01-20T18:13:50.751Z,98340.16
2023-01-20T18:16:20.676Z,98338.75
2023-01-20T18:18:49.792Z,98333.38
2023-01-20T18:21:22.581Z,98334.31
2023-01-20T18:23:52.825Z,98330.84
2023-01-20T18:26:22.343Z,98326.59
2023-01-20T18:28:50.554Z,98338.16
2023-01-20T18:31:19.448Z,98341.25
2023-01-20T18:33:49.019Z,98337.56
2023-01-20T18:36:24.514Z,98349.16
2023-01-20T18:38:53.645Z,98347.28
2023-01-20T18:41:21.867Z,98336.50
2023-01-20T18:43:50.565Z,98334.59
2023-01-20T18:46:19.264Z,98326.88
2023-01-20T18:48:52.222Z,98330.25
2023-01-20T18:51:21.558Z,98322.31
2023-01-20T18:53:59.775Z,98330.81
2023-01-20T18:56:29.007Z,98316.13
2023-01-20T18:58:57.341Z,98312.19
2023-01-20T19:01:29.914Z,98295.94
2023-01-20T19:03:58.071Z,98308.03
2023-01-20T19:06:27.281Z,98311.72
2023-01-20T19:08:56.600Z,98325.94
2023-01-20T19:11:26.354Z,98323.06
2023-01-20T19:13:54.170Z,98317.00
2023-01-20T19:16:23.121Z,98304.72
2023-01-20T19:18:52.891Z,98314.97
2023-01-20T19:21:21.342Z,98323.63
2023-01-20T19:23:53.527Z,98326.50
2023-01-20T19:26:22.237Z,98327.72
2023-01-20T19:28:56.246Z,98331.97
2023-01-20T19:31:25.125Z,98328.41
2023-01-20T19:33:53.390Z,98326.50
2023-01-20T19:36:21.443Z,98329.28
2023-01-20T19:38:54.330Z,98328.22
2023-01-20T19:41:23.856Z,98328.91
2023-01-20T19:43:57.552Z,98328.09
2023-01-20T19:46:30.439Z,98320.28
2023-01-20T19:48:59.799Z,98325.47
2023-01-20T19:51:28.708Z,98334.50
2023-01-20T19:54:00.590Z,98325.66
2023-01-20T19:56:52.984Z,98325.84
2023-01-20T19:59:21.699Z,98328.41
2023-01-20T20:01:50.746Z,98330.81
2023-01-20T20:04:21.038Z,98340.47
2023-01-20T20:06:49.532Z,98330.97
2023-01-20T20:09:18.995Z,98337.94
2023-01-20T20:11:48.362Z,98344.19
2023-01-20T20:14:18.746Z,98348.56
2023-01-20T20:16:49.637Z,98343.00
2023-01-20T20:19:19.144Z,98349.94
2023-01-20T20:21:48.392Z,98353.16
2023-01-20T20:24:19.066Z,98342.72
2023-01-20T20:26:48.549Z,98349.53
2023-01-20T20:29:19.864Z,98353.03
2023-01-20T20:31:52.934Z,98354.63
2023-01-20T20:34:21.455Z,98349.16
2023-01-20T20:36:50.053Z,98351.88
2023-01-20T20:39:18.572Z,98346.66
2023-01-20T20:41:47.052Z,98349.16
2023-01-20T20:44:16.904Z,98329.53
2023-01-20T20:46:45.302Z,98347.78
2023-01-20T20:49:15.272Z,98345.09
2023-01-20T20:51:45.243Z,98352.03
2023-01-20T20:54:15.847Z,98359.78
2023-01-20T20:56:45.564Z,98361.03
2023-01-20T20:59:13.586Z,98361.00
2023-01-20T21:01:41.951Z,98363.50
2023-01-20T21:04:12.130Z,98372.09
2023-01-20T21:06:41.069Z,98376.34
2023-01-20T21:09:09.565Z,98378.03
2023-01-20T21:11:38.728Z,98385.31
2023-01-20T21:14:07.617Z,98387.66
2023-01-20T21:16:38.337Z,98396.16
2023-01-20T21:19:07.099Z,98383.16
2023-01-20T21:21:35.461Z,98377.03
2023-01-20T21:24:03.540Z,98387.50
2023-01-20T21:26:32.556Z,98378.84
2023-01-20T21:29:04.405Z,98392.09
2023-01-20T21:31:32.452Z,98394.66
2023-01-20T21:34:03.777Z,98407.84
2023-01-20T21:36:34.591Z,98419.50
2023-01-20T21:39:02.709Z,98422.87
2023-01-20T21:41:30.187Z,98424.44
2023-01-20T21:44:15.826Z,98437.09
2023-01-20T21:46:43.517Z,98441.34
2023-01-20T21:49:30.299Z,98446.25
2023-01-20T21:52:16.945Z,98439.75
2023-01-20T21:54:45.838Z,98436.28
2023-01-20T21:57:14.828Z,98437.53
2023-01-20T21:59:42.660Z,98442.06
2023-01-20T22:02:10.729Z,98448.69
2023-01-20T22:04:39.699Z,98456.19
2023-01-20T22:07:06.903Z,98451.59
2023-01-20T22:09:34.096Z,98451.00
2023-01-20T22:12:01.660Z,98444.06
2023-01-20T22:14:28.966Z,98451.59
2023-01-20T22:16:56.182Z,98447.38
2023-01-20T22:19:23.730Z,98450.81
2023-01-20T22:21:50.957Z,98437.75
2023-01-20T22:24:18.125Z,98443.88
2023-01-20T22:26:46.251Z,98444.03
2023-01-20T22:29:13.472Z,98445.28
2023-01-20T22:31:40.783Z,98444.72
2023-01-20T22:34:09.174Z,98436.44
2023-01-20T22:36:36.910Z,98444.47
2023-01-20T22:39:05.369Z,98438.34
2023-01-20T22:41:33.130Z,98451.09
2023-01-20T22:44:00.280Z,98462.94
2023-01-20T22:46:27.835Z,98462.22
2023-01-20T22:48:58.649Z,98451.94
2023-01-20T22:51:26.932Z,98460.69
2023-01-20T22:53:55.229Z,98459.44
2023-01-20T22:56:23.257Z,98456.00
2023-01-20T22:58:50.667Z,98454.25
2023-01-20T23:01:22.352Z,98459.16
2023-01-20T23:03:53.161Z,98460.09
2023-01-20T23:06:20.597Z,98457.81
2023-01-20T23:08:47.767Z,98450.66
2023-01-20T23:11:15.547Z,98459.38
2023-01-20T23:13:43.165Z,98455.16
2023-01-20T23:16:10.922Z,98456.53
2023-01-20T23:18:38.129Z,98467.03
2023-01-20T23:21:06.581Z,98462.37
2023-01-20T23:23:33.764Z,98462.66
2023-01-20T23:26:02.121Z,98464.84
2023-01-20T23:28:29.568Z,98478.00
2023-01-20T23:31:00.816Z,98475.34
2023-01-20T23:33:28.119Z,98478.16
2023-01-20T23:35:55.554Z,98482.19
2023-01-20T23:38:22.689Z,98489.34
2023-01-20T23:40:49.843Z,98481.97
2023-01-20T23:43:17.305Z,98482.09
2023-01-20T23:45:44.494Z,98477.91
2023-01-20T23:48:11.664Z,98475.91
2023-01-20T23:50:39.178Z,98473.72
2023-01-20T23:53:06.467Z,98476.75
2023-01-20T23:55:33.592Z,98477.94
2023-01-20T23:58:01.030Z,98477.22
